Flight Track Log - Related Links

Times and Time Zones

All times are in EDT time to prevent confusion due to time zone crossing. See the EJA941 flight status page for this flight to view local times or setup timezone preferences in your user account.

Time Position Orientation Groundspeed Altitude Reporting Facility
EDT Latitude Longitude Course Direction KTS MPH feet Rate Location/Type
Mon 11:59:50 AM 42.3167 -70.9167 124° Southeast 248 285 7,800  Level KA90
Mon 12:00:51 PM 42.3167 -70.8167 90° East 304 350 9,000 1,180 Climbing KA90
Mon 12:02:00 PM 42.2639 -70.7249 114° Southeast  Level FlightAware Approximate
Mon 12:09:00 PM 42.0387 -70.0920 117° Southeast  Level FlightAware Approximate
Mon 12:10:00 PM 41.9912 -70.0333 180° South  Level FlightAware Approximate
Mon 12:11:00 PM 41.9168 -70.0333 180° South  Level FlightAware Approximate
Mon 12:12:00 PM 41.8425 -70.0333 180° South  Level FlightAware Approximate
Mon 12:13:00 PM 41.7681 -70.0333 180° South  Level FlightAware Approximate
Mon 12:14:00 PM 41.6937 -70.0333 180° South  Level FlightAware Approximate
Mon 12:15:00 PM 41.6195 -70.0353 186° South  Level FlightAware Approximate
Mon 12:16:00 PM 41.5455 -70.0459 186° South  Level FlightAware Approximate
Mon 12:17:00 PM 41.4713 -70.0500 180° South  Level FlightAware Approximate
Mon 12:18:00 PM 41.3970 -70.0500 180° South  Level FlightAware Approximate
Mon 12:19:00 PM 41.3226 -70.0500 180° South  Level FlightAware Approximate
Mon 12:20:00 PM 41.2500 -70.0500 180° South  Level FlightAware Approximate
Mon 12:21:00 PM 41.2531 -70.0603 180° South  Level Estimated
Mon 12:22:00 PM 41.2531 -70.0603 180° South  Level Estimated
Mon 12:23:00 PM 41.2531 -70.0603 180° South  Level Estimated
Mon 12:24:00 PM 41.2531 -70.0603 180° South  Level Estimated
Mon 12:25:00 PM 41.2531 -70.0603 180° South  Level Estimated
Mon 12:26:00 PM 41.2531 -70.0603 180° South  Level Estimated
Mon 12:27:00 PM 41.2531 -70.0603 180° South  Level Estimated

Login

Don't have an account? Register now (free) for customized features, flight alerts, and more!